Latest Weather Observations for Terrey Hills

IDN60801

Issued at 4:05 pm EST Thursday 24 July 2014 (issued every 30 minutes, with the page automatically refreshed every 10 minutes)

About weather observations | Map of weather stations | Latest weather observations for NSW | Other Formats
Station Details ID: 066059 Name: TERREY HILLS AWS Lat: -33.69 Lon: 151.23 Height: 199.0 m
Data from the previous 72 hours. | See also: Recent months at Terrey Hills
Date/Time
EST
Temp
°C
App
Temp
°C
Dew
Point
Rel
Hum
%
Delta-T
°C
Wind Press
QNH
hPa
Press
MSL
hPa
Rain
since 9 am
mm
Dir
 
Spd
km/h
Gust
km/h
Spd
kts
Gust
kts
24/04:00pm 14.4 12.7 9.8 74 2.4 N 9 15 5 8 - - 0.0
24/03:30pm 14.9 13.2 9.7 71 2.7 N 9 17 5 9 - - 0.0
24/03:00pm 15.3 13.1 9.4 68 3.1 N 11 17 6 9 - - 0.0
24/02:30pm 15.9 14.0 8.9 63 3.6 N 9 17 5 9 - - 0.0
24/02:00pm 16.3 14.8 9.0 62 3.8 NNW 7 13 4 7 - - 0.0
24/01:30pm 14.8 13.6 9.6 71 2.7 NNW 6 13 3 7 - - 0.0
24/01:00pm 14.8 14.4 9.8 72 2.6 NNW 2 6 1 3 - - 0.0
24/12:30pm 14.0 13.7 10.2 78 2.0 WNW 2 6 1 3 - - 0.0
24/12:00pm 13.7 12.9 9.6 76 2.1 NW 4 6 2 3 - - 0.0
24/11:30am 13.8 12.4 9.0 73 2.5 NNW 6 11 3 6 - - 0.0
24/11:00am 13.9 12.0 9.1 73 2.5 N 9 13 5 7 - - 0.0
24/10:30am 13.9 12.6 9.9 77 2.1 NNW 7 15 4 8 - - 0.0
24/10:00am 12.8 11.8 10.3 85 1.3 N 6 9 3 5 - - 0.0
24/09:30am 12.9 12.3 10.4 85 1.3 NNW 4 9 2 5 - - 0.0
24/09:00am 12.4 11.9 10.8 90 0.8 NNW 4 6 2 3 - - 0.0
24/08:30am 10.9 10.2 10.1 95 0.4 N 4 6 2 3 - - 0.0
24/08:00am 9.9 9.1 9.8 99 0.1 WNW 4 6 2 3 - - 0.0
24/07:30am 8.5 6.8 8.4 99 0.0 W 7 9 4 5 - - 0.0
24/07:00am 8.7 8.0 8.6 99 0.0 NW 2 4 1 2 - - 0.0
24/06:30am 8.7 7.6 8.4 98 0.1 N 4 6 2 3 - - 0.0
24/06:00am 10.7 9.4 9.9 95 0.4 N 7 9 4 5 - - 0.0
24/05:30am 10.9 10.0 10.6 98 0.2 NNE 6 9 3 5 - - 0.0
24/05:00am 9.4 7.9 9.1 98 0.1 NW 7 7 4 4 - - 0.0
24/04:30am 9.1 7.6 8.6 97 0.2 NNW 6 7 3 4 - - 0.0
24/04:00am 9.7 8.1 8.6 93 0.5 N 7 7 4 4 - - 0.0
24/03:30am 11.1 9.9 10.2 94 0.5 N 7 13 4 7 - - 0.0
24/03:00am 9.3 7.9 9.0 98 0.1 NNW 6 7 3 4 - - 0.0
24/02:30am 9.3 7.9 9.0 98 0.1 NNW 6 7 3 4 - - 0.0
24/02:00am 9.1 7.6 8.5 96 0.3 NNW 6 7 3 4 - - 0.0
24/01:30am 11.0 9.5 9.3 89 0.9 N 7 9 4 5 - - 0.0
24/01:00am 11.4 9.7 9.7 89 0.9 N 9 11 5 6 - - 0.0
24/12:30am 11.7 9.9 9.6 87 1.1 N 9 13 5 7 - - 0.0
24/12:00am 12.0 9.9 9.7 86 1.2 N 11 17 6 9 - - 0.0
 
Date/Time
EST
Temp
°C
App
Temp
°C
Dew
Point
Rel
Hum
%
Delta-T
°C
Wind Press
QNH
hPa
Press
MSL
hPa
Rain
since 9 am
mm
Dir
 
Spd
km/h
Gust
km/h
Spd
kts
Gust
kts
23/11:30pm 11.8 9.6 9.5 86 1.2 N 11 15 6 8 - - 0.0
23/11:00pm 11.9 10.1 9.6 86 1.2 N 9 13 5 7 - - 0.0
23/10:30pm 11.8 10.6 9.7 87 1.1 NNE 6 9 3 5 - - 0.0
23/10:00pm 12.2 10.9 9.9 86 1.2 N 7 13 4 7 - - 0.0
23/09:30pm 12.1 10.4 10.0 87 1.1 N 9 13 5 7 - - 0.0
23/09:00pm 11.9 10.6 10.0 88 1.0 N 7 11 4 6 - - 0.0
23/08:30pm 12.0 11.3 10.2 89 0.9 NNE 4 7 2 4 - - 0.0
23/08:00pm 10.9 10.1 9.7 92 0.6 NNE 4 7 2 4 - - 0.0
23/07:30pm 10.8 9.6 9.4 91 0.7 NE 6 9 3 5 - - 0.0
23/07:00pm 11.2 9.7 9.3 88 1.0 NE 7 11 4 6 - - 0.0
23/06:30pm 11.8 10.5 9.9 88 1.0 ENE 7 11 4 6 - - 0.0
23/06:00pm 11.5 10.1 9.4 87 1.1 ENE 7 11 4 6 - - 0.0
23/05:30pm 11.4 10.1 9.1 86 1.2 E 6 7 3 4 - - 0.0
23/05:00pm 12.0 10.7 9.2 83 1.4 E 6 9 3 5 - - 0.0
23/04:30pm 12.7 11.4 9.2 79 1.8 E 6 7 3 4 - - 0.0
23/04:00pm 13.3 11.8 9.2 76 2.1 ESE 7 11 4 6 - - 0.0
23/03:30pm 14.1 12.6 9.1 72 2.6 ESE 7 11 4 6 - - 0.0
23/03:00pm 14.3 13.5 9.5 73 2.5 ESE 4 9 2 5 - - 0.0
23/02:30pm 14.3 12.8 9.3 72 2.6 ESE 7 11 4 6 - - 0.0
23/02:00pm 15.1 13.9 9.5 69 2.9 SE 6 11 3 6 - - 0.0
23/01:30pm 14.4 14.0 9.6 73 2.5 SSE 2 9 1 5 - - 0.0
23/01:00pm 14.6 14.4 9.2 70 2.8 CALM 0 0 0 0 - - 0.0
23/12:30pm 14.3 14.1 9.1 71 2.7 CALM 0 0 0 0 - - 0.0
23/12:00pm 14.4 14.2 9.2 71 2.7 CALM 0 0 0 0 - - 0.0
23/11:30am 15.1 14.1 9.0 67 3.1 W 4 7 2 4 - - 0.0
23/11:00am 14.7 14.2 10.9 78 2.0 SSW 4 9 2 5 - - 0.0
23/10:30am 12.9 11.7 10.3 84 1.4 SW 7 11 4 6 - - 0.0
23/10:00am 12.5 11.7 10.9 90 0.8 SSW 6 11 3 6 - - 0.0
23/09:30am 11.0 9.7 9.9 93 0.6 WNW 7 11 4 6 - - 0.0
23/09:00am 10.4 9.1 9.8 96 0.3 WNW 7 11 4 6 - - 0.0
23/08:30am 9.4 7.9 9.3 99 0.0 WNW 7 11 4 6 - - 0.0
23/08:00am 8.3 6.2 8.2 99 0.0 W 9 13 5 7 - - 0.0
23/07:30am 7.9 5.7 7.8 99 0.0 W 9 11 5 6 - - 0.0
23/07:00am 8.1 5.9 8.0 99 0.0 W 9 11 5 6 - - 0.0
23/06:30am 8.1 5.6 8.0 99 0.0 W 11 11 6 6 - - 0.0
23/06:00am 8.2 6.1 8.1 99 0.0 W 9 9 5 5 - - 0.0
23/05:30am 8.0 5.8 7.9 99 0.0 WNW 9 11 5 6 - - 0.0
23/05:00am 8.6 6.6 8.5 99 0.0 W 9 11 5 6 - - 0.0
23/04:30am 8.7 6.3 8.6 99 0.0 W 11 11 6 6 - - 0.0
23/04:00am 8.7 6.7 8.6 99 0.0 W 9 11 5 6 - - 0.0
23/03:30am 8.7 6.7 8.6 99 0.0 W 9 11 5 6 - - 0.0
23/03:00am 8.8 6.8 8.7 99 0.0 WNW 9 11 5 6 - - 0.0
23/02:30am 8.9 6.9 8.8 99 0.0 W 9 11 5 6 - - 0.0
23/02:00am 9.3 7.4 9.0 98 0.1 W 9 13 5 7 - - 0.0
23/01:30am 9.2 7.3 8.9 98 0.1 W 9 13 5 7 - - 0.0
23/01:00am 9.5 7.6 8.9 96 0.3 W 9 13 5 7 - - 0.0
23/12:30am 9.8 8.3 9.0 95 0.4 W 7 9 4 5 - - 0.0
23/12:00am 10.1 8.8 9.3 95 0.4 W 6 7 3 4 - - 0.0
 
Date/Time
EST
Temp
°C
App
Temp
°C
Dew
Point
Rel
Hum
%
Delta-T
°C
Wind Press
QNH
hPa
Press
MSL
hPa
Rain
since 9 am
mm
Dir
 
Spd
km/h
Gust
km/h
Spd
kts
Gust
kts
22/11:30pm 9.9 8.4 9.3 96 0.3 W 7 9 4 5 - - 0.0
22/11:00pm 9.6 8.9 8.5 93 0.5 W 2 7 1 4 - - 0.0
22/10:30pm 11.2 11.0 8.9 86 1.2 CALM 0 4 0 2 - - 0.0
22/10:00pm 11.7 10.8 9.3 85 1.2 ESE 4 6 2 3 - - 0.0
22/09:30pm 12.2 11.0 9.6 84 1.3 ESE 6 6 3 3 - - 0.0
22/09:00pm 12.2 12.3 10.1 87 1.1 CALM 0 0 0 0 - - 0.0
22/08:30pm 10.9 10.7 9.2 89 0.9 CALM 0 0 0 0 - - 0.0
22/08:00pm 11.7 10.9 9.6 87 1.1 E 4 6 2 3 - - 0.0
22/07:30pm 11.1 10.2 9.4 89 0.9 E 4 6 2 3 - - 0.0
22/07:00pm 11.8 11.0 9.7 87 1.1 E 4 6 2 3 - - 0.0
22/06:30pm 11.9 10.8 9.8 87 1.1 ESE 6 7 3 4 - - 0.0
22/06:00pm 11.9 10.8 10.0 88 1.0 E 6 7 3 4 - - 0.0
22/05:30pm 12.2 11.0 9.6 84 1.3 ESE 6 7 3 4 - - 0.0
22/05:00pm 12.7 11.4 9.3 80 1.7 ESE 6 7 3 4 - - 0.0
22/04:30pm 13.5 12.1 9.6 77 2.0 ESE 7 11 4 6 - - 0.0
22/04:00pm 14.2 12.8 9.6 74 2.4 ESE 7 13 4 7 - - 0.0
22/03:30pm 14.3 12.8 9.3 72 2.6 ESE 7 11 4 6 - - 0.0
22/03:00pm 14.8 13.4 9.4 70 2.8 ESE 7 13 4 7 - - 0.0
22/02:30pm 15.6 13.8 9.3 66 3.3 E 9 15 5 8 - - 0.0
22/02:00pm 15.2 13.5 9.8 70 2.8 E 9 13 5 7 - - 0.0
22/01:30pm 16.4 15.1 9.8 65 3.5 E 7 17 4 9 - - 0.0
22/01:00pm 15.7 14.9 9.6 67 3.2 ESE 4 9 2 5 - - 0.0
22/12:30pm 16.3 15.3 10.4 68 3.2 S 6 11 3 6 - - 0.0
22/12:00pm 14.9 14.0 9.3 69 2.9 SW 4 13 2 7 - - 0.0
22/11:30am 14.8 13.4 9.4 70 2.8 SW 7 13 4 7 - - 0.0
22/11:00am 14.2 12.3 9.0 71 2.7 SW 9 15 5 8 - - 0.0
22/10:30am 13.6 11.4 9.3 75 2.2 WSW 11 17 6 9 - - 0.0
22/10:00am 12.9 11.3 10.1 83 1.5 SW 9 17 5 9 - - 0.0
22/09:30am 11.5 9.8 9.9 90 0.8 W 9 13 5 7 - - 0.0
22/09:00am 10.3 8.9 9.5 95 0.4 W 7 13 4 7 - - 0.2
22/08:30am 9.3 7.4 9.2 99 0.0 W 9 17 5 9 - - 0.2
22/08:00am 8.7 6.7 8.6 99 0.0 W 9 13 5 7 - - 0.2
22/07:30am 8.2 5.7 8.1 99 0.0 W 11 15 6 8 - - 0.2
22/07:00am 7.7 5.1 7.6 99 0.0 W 11 13 6 7 - - 0.2
22/06:30am 7.7 5.1 7.6 99 0.0 W 11 15 6 8 - - 0.2
22/06:00am 8.2 5.7 8.1 99 0.0 W 11 13 6 7 - - 0.2
22/05:30am 8.1 5.6 8.0 99 0.0 W 11 13 6 7 - - 0.0
22/05:00am 8.1 5.6 8.0 99 0.0 WNW 11 13 6 7 - - 0.0
22/04:30am 8.5 6.0 8.4 99 0.0 WNW 11 13 6 7 - - 0.0
22/04:00am 8.9 6.9 8.8 99 0.0 W 9 11 5 6 - - 0.0
22/03:30am 9.3 7.8 9.2 99 0.0 W 7 9 4 5 - - 0.0
22/03:00am 9.5 7.7 9.4 99 0.1 W 9 9 5 5 - - 0.0
22/02:30am 9.2 7.7 9.1 99 0.0 W 7 11 4 6 - - 0.0
22/02:00am 9.4 7.9 9.1 98 0.1 W 7 11 4 6 - - 0.0
22/01:30am 10.0 8.3 9.7 98 0.2 W 9 15 5 8 - - 0.0
22/01:00am 10.1 8.8 9.8 98 0.2 W 7 13 4 7 - - 0.0
22/12:30am 10.3 9.0 10.1 99 0.1 W 7 9 4 5 - - 0.0
22/12:00am 10.1 8.8 10.0 99 0.1 W 7 9 4 5 - - 0.0
 
Date/Time
EST
Temp
°C
App
Temp
°C
Dew
Point
Rel
Hum
%
Delta-T
°C
Wind Press
QNH
hPa
Press
MSL
hPa
Rain
since 9 am
mm
Dir
 
Spd
km/h
Gust
km/h
Spd
kts
Gust
kts
21/11:30pm 10.2 9.9 10.1 99 0.1 W 2 6 1 3 - - 0.0
21/11:00pm 9.9 9.8 9.4 97 0.3 CALM 0 0 0 0 - - 0.0
21/10:30pm 11.2 11.4 10.4 95 0.4 CALM 0 4 0 2 - - 0.0
21/10:00pm 11.6 10.7 10.7 94 0.5 SE 6 9 3 5 - - 0.0
21/09:30pm 11.7 12.0 10.9 95 0.4 CALM 0 0 0 0 - - 0.0
21/09:00pm 11.4 11.6 10.5 94 0.5 CALM 0 0 0 0 - - 0.0
21/08:30pm 11.8 11.6 10.5 92 0.7 S 2 4 1 2 - - 0.0
21/08:00pm 11.9 11.0 10.6 92 0.7 SSE 6 7 3 4 - - 0.0
21/07:30pm 11.7 11.1 10.3 91 0.7 SSE 4 6 2 3 - - 0.0
21/07:00pm 11.8 11.2 10.4 91 0.7 SSW 4 9 2 5 - - 0.0
21/06:30pm 11.9 11.3 10.3 90 0.8 S 4 7 2 4 - - 0.0
21/06:00pm 12.0 11.3 10.2 89 0.9 S 4 6 2 3 - - 0.0
21/05:30pm 12.2 11.6 10.4 89 0.9 S 4 9 2 5 - - 0.0
21/05:00pm 12.4 12.5 10.3 87 1.1 CALM 0 4 0 2 - - 0.0
21/04:30pm 12.6 11.6 10.3 86 1.2 SE 6 9 3 5 - - 0.0

Other Formats:

Comma delimited format used in spreadsheet applications
http://www.bom.gov.au/fwo/IDN60801/IDN60801.94759.axf

JavaScript Object Notation format (JSON) in row-major order
http://www.bom.gov.au/fwo/IDN60801/IDN60801.94759.json